Time;durP1;ratioP1;P1;durP2;ratioP2;P2;SDS_P1;SDS_P2;PMS_P1;PMS_P2;Temp;Humidity;BMP_temperature;BMP_pressure;BME280_temperature;BME280_humidity;BME280_pressure;Samples;Min_cycle;Max_cycle;Signal;HPM_P1;HPM_P2
2022/10/25 00:00:40;;;;;;;9.63;3.77;;;15.30;94.70;;;;;;4980978;28;20109;-76
2022/10/25 00:03:07;;;;;;;9.53;3.13;;;15.30;94.50;;;;;;4991281;28;20294;-76
2022/10/25 00:05:33;;;;;;;5.55;2.00;;;15.20;94.80;;;;;;4991290;28;20049;-76
2022/10/25 00:07:59;;;;;;;9.77;3.90;;;15.20;94.30;;;;;;4989317;28;20027;-76
2022/10/25 00:10:25;;;;;;;10.23;3.75;;;15.20;94.50;;;;;;4988000;28;20026;-76
2022/10/25 00:12:51;;;;;;;10.65;3.45;;;15.20;94.60;;;;;;4987041;28;20508;-76
2022/10/25 00:15:16;;;;;;;13.02;4.00;;;15.20;94.50;;;;;;4988499;28;20116;-76
2022/10/25 00:17:42;;;;;;;8.43;3.00;;;15.20;94.70;;;;;;4982869;28;20061;-76
2022/10/25 00:20:10;;;;;;;10.57;3.63;;;15.30;94.50;;;;;;4992013;28;20034;-76
2022/10/25 00:22:36;;;;;;;13.02;4.82;;;15.30;94.50;;;;;;4977121;28;20034;-77
2022/10/25 00:25:02;;;;;;;14.23;4.18;;;15.20;94.90;;;;;;4989086;28;20030;-77
2022/10/25 00:27:28;;;;;;;12.20;3.80;;;15.20;95.00;;;;;;4990500;28;20031;-76
2022/10/25 00:29:53;;;;;;;9.93;4.30;;;15.30;94.80;;;;;;4987318;28;20022;-77
2022/10/25 00:32:19;;;;;;;12.00;3.92;;;15.30;94.80;;;;;;4987981;28;20026;-77
2022/10/25 00:34:45;;;;;;;14.35;4.80;;;15.30;94.90;;;;;;4982825;28;20035;-76
2022/10/25 00:37:10;;;;;;;11.30;4.03;;;15.30;94.70;;;;;;4986642;28;20027;-77
2022/10/25 00:39:36;;;;;;;13.07;4.35;;;15.30;94.70;;;;;;4986812;28;20027;-77
2022/10/25 00:42:02;;;;;;;20.15;6.25;;;15.30;94.50;;;;;;4990138;28;20023;-78
2022/10/25 00:44:37;;;;;;;13.07;4.78;;;15.30;94.50;;;;;;4988957;28;20480;-77
2022/10/25 00:47:29;;;;;;;10.10;4.30;;;15.30;94.60;;;;;;4986301;28;20058;-77
2022/10/25 00:50:17;;;;;;;10.48;4.13;;;15.30;94.50;;;;;;4984065;28;20473;-78
2022/10/25 00:52:46;;;;;;;10.50;5.10;;;15.30;94.20;;;;;;4974419;28;20058;-77
2022/10/25 00:55:14;;;;;;;11.48;4.55;;;15.30;94.40;;;;;;4987358;28;20023;-77
2022/10/25 00:58:02;;;;;;;13.95;5.53;;;15.30;94.40;;;;;;4988581;28;20050;-76
2022/10/25 01:00:28;;;;;;;13.20;5.68;;;15.30;94.50;;;;;;4988298;28;20062;-78
2022/10/25 01:02:54;;;;;;;9.48;5.20;;;15.30;94.50;;;;;;4988075;28;20026;-77
2022/10/25 01:05:20;;;;;;;13.73;5.60;;;15.40;94.30;;;;;;4989450;28;20073;-77
2022/10/25 01:07:46;;;;;;;11.38;5.70;;;15.30;94.40;;;;;;4992031;28;20065;-78
2022/10/25 01:10:12;;;;;;;9.38;4.82;;;15.40;94.50;;;;;;4989880;28;20061;-78
2022/10/25 01:12:39;;;;;;;11.27;4.57;;;15.40;94.40;;;;;;4988697;28;20037;-77
2022/10/25 01:15:05;;;;;;;10.90;4.65;;;15.40;94.50;;;;;;4989054;28;20054;-76
2022/10/25 01:17:43;;;;;;;11.98;5.80;;;15.40;94.50;;;;;;4987185;28;20077;-78
2022/10/25 01:20:36;;;;;;;11.60;5.60;;;15.50;94.40;;;;;;4982631;28;20121;-77
2022/10/25 01:23:14;;;;;;;15.48;6.90;;;15.50;94.50;;;;;;4989772;28;20031;-77
2022/10/25 01:25:49;;;;;;;12.98;6.15;;;15.60;94.50;;;;;;4989386;28;20022;-76
2022/10/25 01:28:27;;;;;;;12.25;5.18;;;15.50;94.30;;;;;;4989548;28;20030;-76
2022/10/25 01:31:08;;;;;;;14.90;6.35;;;15.50;94.00;;;;;;4987037;28;20082;-79
2022/10/25 01:33:39;;;;;;;16.77;7.03;;;15.50;94.20;;;;;;4988263;28;20137;-77
2022/10/25 01:36:19;;;;;;;17.45;7.78;;;15.50;94.40;;;;;;4989241;28;20034;-76
2022/10/25 01:38:44;;;;;;;;;;;15.50;94.30;;;;;;4988282;28;20505;-76
2022/10/25 01:41:47;;;;;;;12.40;5.68;;;15.50;94.40;;;;;;4987975;28;19913;-76
2022/10/25 01:44:36;;;;;;;18.63;6.63;;;15.50;94.50;;;;;;4999501;28;20050;-77
2022/10/25 01:47:16;;;;;;;11.50;5.63;;;15.50;94.50;;;;;;4990776;28;20085;-77
2022/10/25 01:49:49;;;;;;;13.05;5.95;;;15.50;94.10;;;;;;4989468;28;20087;-76
2022/10/25 01:52:20;;;;;;;15.07;5.80;;;15.50;94.30;;;;;;4986558;28;20084;-76
2022/10/25 01:54:45;;;;;;;13.65;6.95;;;15.50;94.20;;;;;;4990689;28;20172;-77
2022/10/25 01:57:23;;;;;;;11.77;5.47;;;15.40;94.40;;;;;;4979567;28;20026;-77
2022/10/25 01:59:59;;;;;;;12.68;5.78;;;15.50;94.50;;;;;;4990175;28;20045;-77
2022/10/25 02:02:41;;;;;;;16.15;6.10;;;15.50;94.60;;;;;;4982985;28;20035;-77
2022/10/25 02:05:45;;;;;;;15.00;6.30;;;15.50;94.80;;;;;;4985512;28;20484;-76
2022/10/25 02:08:23;;;;;;;11.43;5.15;;;15.50;94.70;;;;;;4990417;28;20022;-78
2022/10/25 02:10:59;;;;;;;18.33;6.32;;;15.50;94.80;;;;;;4986835;28;20031;-77
2022/10/25 02:13:52;;;;;;;15.68;5.82;;;15.50;94.80;;;;;;4985699;28;20066;-77
2022/10/25 02:16:33;;;;;;;17.90;6.20;;;15.50;94.80;;;;;;4981265;28;20047;-77
2022/10/25 02:19:02;;;;;;;16.63;6.75;;;15.50;95.00;;;;;;4984615;28;20371;-77
2022/10/25 02:21:32;;;;;;;19.30;6.70;;;15.50;94.80;;;;;;4983492;28;20379;-77
2022/10/25 02:24:02;;;;;;;14.63;5.10;;;15.60;94.80;;;;;;4985234;28;20057;-77
2022/10/25 02:26:28;;;;;;;17.52;6.10;;;15.50;94.80;;;;;;4989517;28;20038;-77
2022/10/25 02:29:02;;;;;;;16.10;5.55;;;15.50;94.70;;;;;;4989288;28;20037;-76
2022/10/25 02:31:29;;;;;;;11.45;4.72;;;15.50;94.30;;;;;;4988638;28;20080;-77
2022/10/25 02:33:55;;;;;;;9.80;3.20;;;15.50;94.40;;;;;;4985241;28;20030;-77
2022/10/25 02:36:23;;;;;;;15.32;5.57;;;15.60;93.80;;;;;;4993493;28;20077;-77
2022/10/25 02:38:51;;;;;;;14.88;5.95;;;15.60;94.10;;;;;;4993621;28;20023;-76
2022/10/25 02:41:18;;;;;;;15.38;6.38;;;15.60;94.10;;;;;;4990957;28;20111;-76
2022/10/25 02:43:44;;;;;;;13.93;4.57;;;15.60;94.40;;;;;;4992485;28;20077;-76
2022/10/25 02:46:13;;;;;;;12.13;5.22;;;15.50;94.40;;;;;;4988414;28;20535;-77
2022/10/25 02:48:39;;;;;;;18.02;5.43;;;15.50;94.50;;;;;;4985313;28;20087;-77
2022/10/25 02:51:07;;;;;;;11.32;4.63;;;15.60;94.50;;;;;;4993453;28;20030;-77
2022/10/25 02:53:33;;;;;;;15.25;6.65;;;15.50;94.40;;;;;;4982533;28;20311;-77
2022/10/25 02:56:07;;;;;;;15.82;6.43;;;15.50;94.80;;;;;;4992353;28;20022;-77
2022/10/25 02:58:36;;;;;;;14.23;5.28;;;15.50;94.00;;;;;;4991877;28;20488;-76
2022/10/25 03:01:02;;;;;;;18.38;6.88;;;15.60;93.90;;;;;;4990953;28;20022;-76
2022/10/25 03:03:28;;;;;;;12.18;4.30;;;15.60;94.20;;;;;;4990860;28;20049;-77
2022/10/25 03:05:54;;;;;;;15.30;6.07;;;15.60;93.80;;;;;;4991766;28;20383;-77
2022/10/25 03:08:20;;;;;;;11.32;4.80;;;15.60;93.90;;;;;;4991828;28;20480;-77
2022/10/25 03:10:46;;;;;;;16.17;5.97;;;15.60;93.80;;;;;;4991871;28;20065;-77
2022/10/25 03:13:12;;;;;;;14.85;6.28;;;15.60;93.90;;;;;;4991040;28;20030;-78
2022/10/25 03:15:38;;;;;;;16.02;8.02;;;15.50;93.90;;;;;;4989419;28;20074;-78
2022/10/25 03:18:04;;;;;;;20.52;8.00;;;15.50;94.10;;;;;;4991536;28;20473;-76
2022/10/25 03:20:29;;;;;;;25.90;8.38;;;15.60;94.40;;;;;;4992021;28;20026;-78
2022/10/25 03:22:55;;;;;;;17.02;5.95;;;15.50;94.50;;;;;;4991034;28;20030;-77
2022/10/25 03:25:21;;;;;;;23.13;6.95;;;15.50;94.30;;;;;;4990779;28;20400;-77
2022/10/25 03:27:46;;;;;;;15.73;6.78;;;15.50;93.80;;;;;;4993345;28;20026;-79
2022/10/25 03:30:13;;;;;;;16.52;7.82;;;15.50;94.20;;;;;;4990550;28;20559;-77
2022/10/25 03:32:39;;;;;;;16.25;6.88;;;15.50;94.10;;;;;;4986687;28;20383;-77
2022/10/25 03:35:05;;;;;;;18.50;7.90;;;15.50;94.30;;;;;;4991137;28;20070;-78
2022/10/25 03:37:31;;;;;;;15.20;6.10;;;15.40;94.50;;;;;;4992030;28;20023;-77
2022/10/25 03:39:57;;;;;;;18.52;8.13;;;15.50;94.40;;;;;;4985572;28;20141;-77
2022/10/25 03:42:23;;;;;;;16.35;7.03;;;15.50;94.20;;;;;;4984883;28;20038;-77
2022/10/25 03:44:48;;;;;;;18.13;7.60;;;15.50;94.10;;;;;;4990915;28;20037;-76
2022/10/25 03:47:14;;;;;;;13.30;5.72;;;15.50;94.20;;;;;;4991629;28;20023;-78
2022/10/25 03:49:40;;;;;;;10.05;5.40;;;15.50;94.20;;;;;;4991337;28;20053;-76
2022/10/25 03:52:06;;;;;;;20.42;7.78;;;15.50;93.50;;;;;;4990811;28;20061;-77
2022/10/25 03:54:32;;;;;;;13.18;7.20;;;15.50;93.20;;;;;;4989763;28;20432;-77
2022/10/25 03:56:58;;;;;;;16.10;8.05;;;15.50;94.20;;;;;;4989534;28;20856;-78
2022/10/25 03:59:24;;;;;;;15.07;6.38;;;15.50;94.00;;;;;;4987902;28;20041;-78
2022/10/25 04:01:49;;;;;;;14.98;8.20;;;15.50;94.00;;;;;;4988813;28;20026;-78
2022/10/25 04:04:15;;;;;;;15.93;7.50;;;15.50;94.00;;;;;;4987972;28;20088;-77
2022/10/25 04:06:40;;;;;;;22.40;9.15;;;15.50;94.00;;;;;;4989029;28;20057;-77
2022/10/25 04:09:06;;;;;;;13.38;6.05;;;15.50;94.10;;;;;;4989684;28;20037;-77
2022/10/25 04:11:32;;;;;;;10.90;6.82;;;15.50;94.00;;;;;;4988617;28;20021;-77
2022/10/25 04:13:57;;;;;;;22.92;8.65;;;15.50;93.90;;;;;;4987541;28;20035;-76
2022/10/25 04:16:24;;;;;;;18.50;8.60;;;15.50;94.20;;;;;;4988471;28;20101;-76
2022/10/25 04:18:52;;;;;;;20.67;7.68;;;15.50;94.00;;;;;;4979817;28;20065;-78
2022/10/25 04:21:21;;;;;;;14.40;7.53;;;15.50;93.80;;;;;;4989275;28;20029;-78
2022/10/25 04:23:48;;;;;;;16.10;7.85;;;15.50;93.90;;;;;;4988956;28;20034;-76
2022/10/25 04:26:17;;;;;;;20.80;7.28;;;15.50;93.80;;;;;;4988113;28;20054;-78
2022/10/25 04:28:44;;;;;;;21.25;8.38;;;15.50;93.90;;;;;;4988523;28;20081;-78
2022/10/25 04:31:09;;;;;;;17.45;7.28;;;15.50;94.00;;;;;;4989338;28;20037;-76
2022/10/25 04:33:35;;;;;;;14.00;5.43;;;15.50;93.80;;;;;;4984978;28;20034;-78
2022/10/25 04:36:01;;;;;;;14.13;6.53;;;15.50;93.90;;;;;;4989044;28;20050;-77
2022/10/25 04:38:27;;;;;;;13.00;5.57;;;15.50;93.80;;;;;;4989316;28;20030;-77
2022/10/25 04:40:55;;;;;;;14.27;6.88;;;15.50;93.90;;;;;;4988440;28;20030;-79
2022/10/25 04:43:21;;;;;;;12.00;5.72;;;15.50;93.80;;;;;;4983476;28;20032;-77
2022/10/25 04:45:47;;;;;;;15.80;6.72;;;15.50;93.80;;;;;;4987377;28;20065;-77
2022/10/25 04:48:13;;;;;;;10.43;4.55;;;15.50;93.70;;;;;;4987863;28;20022;-77
2022/10/25 04:50:38;;;;;;;15.35;6.38;;;15.50;93.60;;;;;;4989085;28;20030;-79
2022/10/25 04:53:04;;;;;;;12.00;5.13;;;15.50;93.50;;;;;;4988502;28;20097;-77
2022/10/25 04:55:31;;;;;;;12.25;5.20;;;15.50;93.60;;;;;;4987902;28;20082;-79
2022/10/25 04:57:57;;;;;;;14.07;6.25;;;15.50;93.70;;;;;;4988273;28;20053;-76
2022/10/25 05:00:23;;;;;;;17.73;7.07;;;15.50;93.70;;;;;;4989178;28;20023;-76
2022/10/25 05:02:52;;;;;;;16.15;7.00;;;15.50;93.80;;;;;;4983648;28;20113;-78
2022/10/25 05:05:18;;;;;;;17.23;6.35;;;15.40;93.90;;;;;;4987872;28;20084;-78
2022/10/25 05:07:44;;;;;;;15.85;5.93;;;15.40;93.90;;;;;;4988424;28;20018;-79
2022/10/25 05:10:10;;;;;;;10.07;4.65;;;15.50;93.80;;;;;;4988601;28;20025;-77
2022/10/25 05:12:36;;;;;;;15.88;6.82;;;15.40;93.70;;;;;;4985185;28;20038;-77
2022/10/25 05:15:03;;;;;;;16.50;7.47;;;15.40;93.80;;;;;;4984858;28;20104;-78
2022/10/25 05:17:29;;;;;;;16.63;7.63;;;15.40;93.80;;;;;;4984127;28;20077;-77
2022/10/25 05:19:54;;;;;;;16.15;7.55;;;15.40;93.80;;;;;;4993328;28;20018;-78
2022/10/25 05:22:21;;;;;;;12.82;5.63;;;15.40;93.90;;;;;;5006292;28;20030;-78
2022/10/25 05:24:46;;;;;;;17.45;7.65;;;15.50;93.70;;;;;;4988482;28;20037;-77
2022/10/25 05:27:12;;;;;;;14.90;6.10;;;15.40;94.00;;;;;;4989089;28;20019;-77
2022/10/25 05:29:38;;;;;;;20.33;8.15;;;15.40;93.80;;;;;;4989400;28;20084;-76
2022/10/25 05:32:04;;;;;;;10.85;6.38;;;15.40;93.90;;;;;;4986454;28;20042;-77
2022/10/25 05:34:29;;;;;;;14.40;5.35;;;15.30;94.00;;;;;;4977305;28;20026;-77
2022/10/25 05:36:56;;;;;;;17.38;7.72;;;15.30;93.70;;;;;;4988842;28;20069;-76
2022/10/25 05:39:21;;;;;;;18.92;8.52;;;15.30;94.00;;;;;;4986849;28;20026;-78
2022/10/25 05:41:48;;;;;;;16.70;6.72;;;15.30;94.20;;;;;;4988567;28;20038;-78
2022/10/25 05:44:15;;;;;;;14.52;6.15;;;15.30;94.00;;;;;;4988188;28;20026;-78
2022/10/25 05:46:42;;;;;;;15.80;6.15;;;15.30;93.80;;;;;;4989036;28;20026;-77
2022/10/25 05:49:09;;;;;;;12.15;5.20;;;15.30;93.80;;;;;;4989639;28;20027;-77
2022/10/25 05:51:35;;;;;;;15.40;6.28;;;15.30;93.80;;;;;;4988417;28;20084;-77
2022/10/25 05:54:04;;;;;;;17.02;7.55;;;15.20;94.00;;;;;;4987918;28;20022;-78
2022/10/25 05:56:30;;;;;;;13.45;5.65;;;15.20;94.00;;;;;;4985164;28;20588;-78
2022/10/25 05:59:00;;;;;;;12.63;5.55;;;15.20;94.00;;;;;;4988992;28;20090;-78
2022/10/25 06:01:26;;;;;;;15.43;6.25;;;15.10;94.00;;;;;;4982937;28;20101;-79
2022/10/25 06:03:53;;;;;;;14.90;4.80;;;15.20;93.80;;;;;;4987816;28;20066;-77
2022/10/25 06:06:20;;;;;;;14.82;4.85;;;15.10;93.70;;;;;;4984493;28;20030;-78
2022/10/25 06:08:45;;;;;;;16.35;6.75;;;15.10;94.10;;;;;;4989531;28;20496;-77
2022/10/25 06:11:14;;;;;;;11.20;5.40;;;15.10;94.00;;;;;;4991749;28;20026;-78
2022/10/25 06:13:40;;;;;;;14.13;5.85;;;15.10;93.90;;;;;;4991907;28;20141;-79
2022/10/25 06:16:12;;;;;;;13.35;5.45;;;15.10;94.20;;;;;;4982973;28;20046;-78
2022/10/25 06:18:38;;;;;;;9.77;4.47;;;15.10;94.00;;;;;;4992111;28;20198;-78
2022/10/25 06:21:16;;;;;;;17.38;6.20;;;15.10;93.40;;;;;;4992717;28;20030;-78
2022/10/25 06:23:42;;;;;;;11.90;5.18;;;15.00;93.80;;;;;;4993658;28;20066;-78
2022/10/25 06:26:18;;;;;;;11.18;4.85;;;15.00;93.90;;;;;;4993022;28;20677;-78
2022/10/25 06:28:44;;;;;;;14.68;5.40;;;15.10;94.00;;;;;;4991919;28;20026;-78
2022/10/25 06:31:12;;;;;;;12.43;6.35;;;15.10;94.00;;;;;;4987461;28;20018;-78
2022/10/25 06:33:39;;;;;;;12.38;6.30;;;15.10;94.00;;;;;;4990991;28;20030;-79
2022/10/25 06:36:11;;;;;;;17.25;7.15;;;15.10;94.10;;;;;;4989486;28;20039;-77
2022/10/25 06:38:38;;;;;;;14.70;5.85;;;15.10;94.20;;;;;;4992274;28;20030;-78
2022/10/25 06:41:06;;;;;;;17.13;7.85;;;15.10;94.10;;;;;;4996781;28;20101;-79
2022/10/25 06:43:33;;;;;;;13.10;5.95;;;15.10;94.10;;;;;;4997161;28;20026;-77
2022/10/25 06:46:05;;;;;;;12.98;6.55;;;15.00;94.20;;;;;;4998583;28;20109;-78
2022/10/25 06:48:30;;;;;;;15.60;7.72;;;15.00;94.40;;;;;;4993023;28;20105;-78
2022/10/25 06:51:01;;;;;;;15.15;6.80;;;14.90;94.40;;;;;;4991759;28;20157;-78
2022/10/25 06:53:27;;;;;;;15.43;7.82;;;15.00;94.60;;;;;;4996285;28;20150;-77
2022/10/25 06:55:53;;;;;;;14.82;7.25;;;14.90;94.50;;;;;;4997764;28;20494;-77
2022/10/25 06:58:18;;;;;;;10.57;5.10;;;14.90;94.60;;;;;;4998878;28;20022;-78
2022/10/25 07:00:44;;;;;;;19.05;6.93;;;15.00;94.50;;;;;;4998799;28;20037;-77
2022/10/25 07:03:09;;;;;;;14.93;6.50;;;14.90;94.50;;;;;;4997708;28;20030;-79
2022/10/25 07:05:37;;;;;;;14.77;6.20;;;14.90;94.80;;;;;;4994282;28;20038;-78
2022/10/25 07:08:03;;;;;;;21.92;7.22;;;14.90;94.50;;;;;;4997696;28;20014;-76
2022/10/25 07:10:28;;;;;;;21.52;7.10;;;15.10;93.60;;;;;;4998199;28;20047;-78
2022/10/25 07:12:54;;;;;;;11.02;6.57;;;15.10;93.90;;;;;;4999654;28;20013;-77
2022/10/25 07:15:22;;;;;;;22.77;9.68;;;15.00;94.20;;;;;;4994544;28;20100;-77
2022/10/25 07:17:48;;;;;;;14.20;6.00;;;15.00;94.10;;;;;;4999374;28;20034;-79
2022/10/25 07:20:13;;;;;;;15.55;6.63;;;15.10;94.10;;;;;;4993989;28;20022;-76
2022/10/25 07:22:39;;;;;;;9.48;5.13;;;15.00;94.30;;;;;;4999130;28;20079;-78
2022/10/25 07:25:05;;;;;;;12.95;5.78;;;15.10;93.80;;;;;;4999254;28;20041;-78
2022/10/25 07:27:31;;;;;;;14.38;7.20;;;15.10;93.90;;;;;;4997823;28;20133;-74
2022/10/25 07:29:57;;;;;;;12.00;5.40;;;15.20;94.30;;;;;;4996504;28;20050;-77
2022/10/25 07:32:23;;;;;;;10.68;4.07;;;15.20;94.00;;;;;;4998181;28;20053;-76
2022/10/25 07:34:49;;;;;;;10.48;5.07;;;15.20;94.00;;;;;;4989731;28;20126;-77
2022/10/25 07:37:14;;;;;;;11.68;4.03;;;15.40;92.90;;;;;;4998524;28;20109;-76
2022/10/25 07:39:40;;;;;;;13.00;5.95;;;15.50;92.30;;;;;;4997655;28;20100;-77
2022/10/25 07:42:12;;;;;;;16.08;6.90;;;15.70;92.80;;;;;;4988546;28;20064;-76
2022/10/25 07:44:37;;;;;;;12.70;5.10;;;15.70;92.90;;;;;;4986046;28;20106;-75
2022/10/25 07:47:03;;;;;;;16.65;6.72;;;15.80;93.00;;;;;;4988509;28;20030;-75
2022/10/25 07:49:29;;;;;;;15.18;7.22;;;15.80;92.80;;;;;;4983443;28;20033;-76
2022/10/25 07:51:54;;;;;;;12.82;5.70;;;15.80;92.70;;;;;;4986404;28;20432;-76
2022/10/25 07:54:20;;;;;;;14.18;7.47;;;15.60;92.70;;;;;;4976085;28;20664;-75
2022/10/25 07:56:45;;;;;;;14.15;7.22;;;15.50;93.00;;;;;;4986826;28;20759;-78
2022/10/25 07:59:11;;;;;;;15.18;7.65;;;15.60;93.10;;;;;;4983027;28;20405;-75
2022/10/25 08:01:37;;;;;;;19.77;7.45;;;15.60;93.00;;;;;;4988796;28;20030;-76
2022/10/25 08:04:02;;;;;;;17.65;7.55;;;15.50;92.80;;;;;;4988236;28;20026;-76
2022/10/25 08:06:28;;;;;;;7.00;3.50;;;15.50;93.10;;;;;;4989007;28;20046;-76
2022/10/25 08:08:53;;;;;;;14.23;6.72;;;15.50;91.40;;;;;;4987812;28;20057;-77
2022/10/25 08:11:19;;;;;;;14.50;7.88;;;15.70;92.30;;;;;;4988359;28;20113;-76
2022/10/25 08:13:48;;;;;;;17.35;7.75;;;15.70;92.50;;;;;;4988683;28;20106;-77
2022/10/25 08:16:13;;;;;;;13.02;8.18;;;15.60;92.80;;;;;;4988492;28;20058;-75
2022/10/25 08:18:42;;;;;;;14.80;8.63;;;15.50;92.90;;;;;;4988613;28;20765;-75
2022/10/25 08:21:08;;;;;;;19.95;9.88;;;15.50;93.00;;;;;;4996181;28;20518;-76
2022/10/25 08:23:34;;;;;;;15.43;8.40;;;15.50;93.20;;;;;;4988441;28;20046;-75
2022/10/25 08:26:00;;;;;;;15.43;6.63;;;15.40;93.30;;;;;;4988600;28;20033;-75
2022/10/25 08:28:26;;;;;;;15.23;8.90;;;15.40;93.00;;;;;;4986298;28;20030;-74
2022/10/25 08:30:54;;;;;;;14.70;6.80;;;15.50;93.00;;;;;;4985944;28;20133;-75
2022/10/25 08:33:19;;;;;;;15.27;7.60;;;15.50;93.20;;;;;;4987383;28;20109;-77
2022/10/25 08:35:45;;;;;;;18.95;9.30;;;15.50;93.20;;;;;;4986768;28;20463;-74
2022/10/25 08:38:11;;;;;;;18.73;8.95;;;15.60;93.20;;;;;;4987239;28;20026;-74
2022/10/25 08:40:53;;;;;;;16.45;10.95;;;15.60;93.30;;;;;;4987893;28;20037;-75
2022/10/25 08:43:30;;;;;;;18.48;9.57;;;15.60;93.20;;;;;;4984426;28;20081;-75
2022/10/25 08:46:01;;;;;;;21.83;10.50;;;15.60;93.20;;;;;;4978456;28;20770;-76
2022/10/25 08:48:31;;;;;;;19.20;11.10;;;15.70;93.20;;;;;;4987679;28;20061;-76
2022/10/25 08:51:03;;;;;;;21.80;12.23;;;15.70;93.00;;;;;;4989464;28;20026;-75
2022/10/25 08:53:40;;;;;;;24.00;12.82;;;15.70;92.90;;;;;;4988283;28;20037;-75
2022/10/25 08:56:11;;;;;;;18.42;12.10;;;15.70;92.80;;;;;;4981510;28;20022;-75
2022/10/25 08:58:46;;;;;;;23.90;13.85;;;15.70;92.90;;;;;;4976134;28;20056;-76
2022/10/25 09:01:27;;;;;;;18.20;9.32;;;15.60;93.00;;;;;;4987138;28;20029;-76
2022/10/25 09:03:53;;;;;;;22.52;14.20;;;15.70;92.10;;;;;;4978645;28;20030;-77
2022/10/25 09:06:37;;;;;;;21.60;13.20;;;15.70;92.50;;;;;;4988664;28;20069;-76
2022/10/25 09:09:24;;;;;;;21.75;13.63;;;15.70;92.40;;;;;;4985231;28;20057;-77
2022/10/25 09:12:13;;;;;;;20.38;13.93;;;15.80;92.40;;;;;;4977552;28;20022;-76
2022/10/25 09:15:13;;;;;;;21.35;10.82;;;15.90;92.30;;;;;;4988714;28;20046;-76
2022/10/25 09:17:49;;;;;;;20.50;12.55;;;15.90;92.40;;;;;;4987326;28;20481;-77
2022/10/25 09:20:30;;;;;;;15.98;11.57;;;15.90;92.30;;;;;;4991841;28;20026;-77
2022/10/25 09:23:21;;;;;;;22.05;13.65;;;16.00;92.40;;;;;;4979737;28;20403;-77
2022/10/25 09:25:59;;;;;;;19.08;12.77;;;16.00;92.50;;;;;;4986046;28;20038;-78
2022/10/25 09:28:48;;;;;;;23.38;14.65;;;16.00;92.30;;;;;;4987976;28;20109;-78
2022/10/25 09:31:18;;;;;;;22.80;14.88;;;16.10;91.90;;;;;;4978678;28;20100;-77
2022/10/25 09:33:46;;;;;;;20.58;14.57;;;16.10;92.20;;;;;;4987575;28;20041;-77
2022/10/25 09:36:13;;;;;;;23.45;12.65;;;16.10;92.20;;;;;;4988422;28;20031;-77
2022/10/25 09:38:48;;;;;;;24.85;15.02;;;16.20;92.00;;;;;;4988012;28;20049;-76
2022/10/25 09:41:36;;;;;;;22.48;15.38;;;16.30;91.90;;;;;;4987914;28;20137;-77
2022/10/25 09:44:52;;;;;;;19.90;12.90;;;16.30;91.60;;;;;;4987997;28;20038;-77
2022/10/25 09:48:01;;;;;;;20.42;13.35;;;16.30;91.60;;;;;;4962936;28;20042;-76
2022/10/25 09:50:33;;;;;;;17.10;10.60;;;16.50;92.20;;;;;;4954404;28;20038;-77
2022/10/25 09:53:12;;;;;;;19.73;12.27;;;16.80;91.70;;;;;;4992066;28;20018;-78
2022/10/25 09:55:51;;;;;;;21.63;13.45;;;17.10;91.10;;;;;;4991879;28;20023;-77
2022/10/25 09:58:29;;;;;;;13.68;9.00;;;17.30;90.20;;;;;;4991773;28;20061;-77
2022/10/25 10:01:15;;;;;;;20.10;14.18;;;17.60;90.10;;;;;;4992647;28;20046;-77
2022/10/25 10:03:41;;;;;;;16.67;12.05;;;17.60;87.50;;;;;;4980422;28;20283;-77
2022/10/25 10:06:21;;;;;;;14.13;10.50;;;17.60;87.90;;;;;;4992784;28;20041;-77
2022/10/25 10:08:52;;;;;;;12.65;8.60;;;17.60;88.10;;;;;;4992147;28;20077;-77
2022/10/25 10:11:19;;;;;;;19.58;12.32;;;17.70;87.30;;;;;;4992518;28;20611;-77
2022/10/25 10:14:11;;;;;;;19.17;12.25;;;17.70;87.10;;;;;;4991163;28;20033;-78
2022/10/25 10:16:49;;;;;;;15.02;10.27;;;17.60;87.00;;;;;;4984757;28;20050;-76
2022/10/25 10:19:28;;;;;;;13.75;8.77;;;17.30;87.80;;;;;;4991823;28;20035;-77
2022/10/25 10:22:05;;;;;;;20.33;12.55;;;17.40;88.60;;;;;;4988379;28;20038;-77
2022/10/25 10:24:36;;;;;;;22.77;13.07;;;17.40;88.30;;;;;;4983277;28;20065;-77
2022/10/25 10:27:20;;;;;;;17.95;11.70;;;17.40;88.10;;;;;;4989523;28;20089;-77
2022/10/25 10:29:54;;;;;;;14.52;9.45;;;17.40;88.20;;;;;;4990378;28;20437;-77
2022/10/25 10:32:33;;;;;;;20.65;13.50;;;17.40;87.70;;;;;;4990996;28;20062;-77
2022/10/25 10:35:01;;;;;;;18.52;11.60;;;17.20;88.20;;;;;;4988105;28;20814;-77
2022/10/25 10:37:32;;;;;;;14.68;9.10;;;17.20;88.60;;;;;;4983814;28;20041;-77
2022/10/25 10:40:06;;;;;;;19.40;10.20;;;17.20;89.10;;;;;;4984043;28;20113;-77
2022/10/25 10:42:35;;;;;;;15.20;9.38;;;17.20;89.10;;;;;;4986133;28;20053;-76
2022/10/25 10:45:14;;;;;;;10.65;6.75;;;17.30;88.70;;;;;;4989635;28;20049;-75
2022/10/25 10:47:44;;;;;;;17.48;11.90;;;17.40;88.00;;;;;;4984155;28;20022;-76
2022/10/25 10:50:19;;;;;;;21.10;11.98;;;17.50;87.90;;;;;;4987821;28;20046;-77
2022/10/25 10:52:46;;;;;;;12.88;8.85;;;17.50;88.00;;;;;;4990063;28;20030;-77
2022/10/25 10:55:31;;;;;;;13.65;9.70;;;17.50;87.60;;;;;;4987956;28;20539;-76
2022/10/25 10:58:06;;;;;;;16.65;9.50;;;17.50;87.50;;;;;;4985667;28;20575;-76
2022/10/25 11:00:33;;;;;;;18.33;10.23;;;17.60;87.90;;;;;;4988054;28;20097;-76
2022/10/25 11:02:59;;;;;;;15.27;9.25;;;17.70;86.70;;;;;;4988481;28;20488;-76
2022/10/25 11:05:27;;;;;;;14.25;9.27;;;17.80;86.30;;;;;;4989818;28;20022;-75
2022/10/25 11:07:56;;;;;;;16.83;10.20;;;17.70;86.00;;;;;;4985408;28;20078;-76
2022/10/25 11:10:28;;;;;;;14.45;10.57;;;17.60;85.40;;;;;;4990753;28;20113;-77
2022/10/25 11:13:24;;;;;;;14.27;8.48;;;17.60;85.80;;;;;;4990313;28;20026;-76
2022/10/25 11:16:20;;;;;;;17.55;7.50;;;17.50;86.40;;;;;;4980306;28;20054;-75
2022/10/25 11:18:54;;;;;;;16.75;9.45;;;17.60;86.70;;;;;;4989779;28;20053;-76
2022/10/25 11:21:49;;;;;;;13.70;7.15;;;17.70;86.10;;;;;;4992024;28;20101;-77
2022/10/25 11:24:23;;;;;;;13.65;8.45;;;17.80;86.10;;;;;;4992319;28;20100;-77
2022/10/25 11:26:54;;;;;;;17.65;8.02;;;17.90;86.00;;;;;;4992770;28;20030;-77
2022/10/25 11:29:38;;;;;;;10.85;5.82;;;17.90;84.60;;;;;;4996416;28;20034;-75
2022/10/25 11:32:40;;;;;;;15.35;7.50;;;18.10;84.50;;;;;;4993144;28;20113;-77
2022/10/25 11:35:28;;;;;;;12.90;6.53;;;18.40;82.80;;;;;;4992136;28;20034;-76
2022/10/25 11:38:20;;;;;;;12.95;7.30;;;18.50;83.00;;;;;;4998940;28;20064;-77
2022/10/25 11:41:25;;;;;;;13.55;7.50;;;18.70;82.10;;;;;;4992880;28;20473;-77
2022/10/25 11:43:57;;;;;;;14.57;7.50;;;18.60;82.70;;;;;;4997073;28;20085;-77
2022/10/25 11:46:50;;;;;;;15.57;7.20;;;18.70;82.10;;;;;;4998390;28;20131;-77
2022/10/25 11:49:41;;;;;;;10.18;5.03;;;18.80;81.00;;;;;;4994139;28;20463;-77
2022/10/25 11:52:38;;;;;;;11.35;4.90;;;18.90;80.90;;;;;;4995322;28;20022;-77
2022/10/25 11:55:13;;;;;;;11.63;4.70;;;19.00;79.50;;;;;;4996358;28;20056;-77
2022/10/25 11:57:53;;;;;;;9.30;4.30;;;19.30;79.30;;;;;;4991385;28;20031;-77
2022/10/25 12:00:20;;;;;;;;;;;19.60;79.30;;;;;;4988051;28;20026;-76
2022/10/25 12:02:49;;;;;;;11.88;4.63;;;19.90;78.20;;;;;;4992645;28;19941;-77
2022/10/25 12:05:46;;;;;;;10.48;5.00;;;20.00;75.80;;;;;;4991810;28;20546;-78
2022/10/25 12:08:40;;;;;;;8.25;3.60;;;20.20;76.10;;;;;;4991844;28;20101;-77
2022/10/25 12:11:16;;;;;;;11.05;5.97;;;20.50;77.20;;;;;;4994222;28;20072;-77
2022/10/25 12:13:46;;;;;;;15.98;6.40;;;20.60;74.80;;;;;;4988447;28;20511;-76
2022/10/25 12:16:15;;;;;;;15.43;5.65;;;20.70;73.00;;;;;;4995502;28;20509;-76
2022/10/25 12:18:49;;;;;;;12.85;6.15;;;20.70;74.30;;;;;;4986969;28;20707;-76
2022/10/25 12:21:29;;;;;;;14.73;5.60;;;20.80;73.60;;;;;;4982392;28;20616;-78
2022/10/25 12:23:55;;;;;;;11.10;5.07;;;20.90;72.90;;;;;;4981508;28;20487;-77
2022/10/25 12:26:27;;;;;;;11.05;5.43;;;20.90;72.60;;;;;;4988823;28;20849;-77
2022/10/25 12:28:54;;;;;;;10.25;4.60;;;21.00;73.30;;;;;;4988031;28;20030;-77
2022/10/25 12:31:32;;;;;;;9.48;4.72;;;20.90;71.60;;;;;;4989296;28;20044;-77
2022/10/25 12:34:36;;;;;;;7.50;3.83;;;21.00;73.10;;;;;;4980351;28;20409;-77
2022/10/25 12:37:13;;;;;;;8.93;3.97;;;21.10;74.50;;;;;;4958645;28;20038;-78
2022/10/25 12:39:41;;;;;;;8.95;4.00;;;21.30;72.60;;;;;;4987893;28;20040;-77
2022/10/25 12:42:23;;;;;;;12.35;4.57;;;21.30;72.20;;;;;;4987478;28;20042;-76
2022/10/25 12:45:02;;;;;;;6.07;2.45;;;21.30;68.90;;;;;;4987693;28;20026;-78
2022/10/25 12:47:52;;;;;;;9.35;4.30;;;21.30;75.80;;;;;;4987770;28;20045;-77
2022/10/25 12:50:29;;;;;;;9.95;4.40;;;21.20;73.10;;;;;;4985696;28;20081;-77
2022/10/25 12:53:22;;;;;;;9.48;4.40;;;21.10;72.10;;;;;;4987954;28;20073;-77
2022/10/25 12:56:01;;;;;;;10.52;4.20;;;20.90;72.50;;;;;;4988493;28;20031;-80
2022/10/25 12:58:27;;;;;;;11.73;5.63;;;20.70;73.10;;;;;;4987471;28;20030;-83